createdAt,value
2018-05-12T00:02:06.314Z,33.90
2018-05-12T00:04:33.877Z,37.70
2018-05-12T00:07:01.433Z,41.27
2018-05-12T00:09:28.957Z,39.93
2018-05-12T00:11:56.519Z,35.03
2018-05-12T00:14:24.031Z,35.60
2018-05-12T00:16:51.570Z,35.90
2018-05-12T00:19:19.084Z,42.87
2018-05-12T00:21:46.665Z,38.33
2018-05-12T00:24:14.254Z,34.53
2018-05-12T00:26:41.774Z,39.60
2018-05-12T00:29:09.650Z,39.13
2018-05-12T00:31:37.243Z,38.57
2018-05-12T00:34:04.769Z,34.77
2018-05-12T00:36:32.276Z,37.73
2018-05-12T00:38:59.879Z,38.13
2018-05-12T00:41:27.470Z,33.90
2018-05-12T00:43:54.979Z,43.53
2018-05-12T00:46:22.766Z,36.60
2018-05-12T00:48:50.355Z,33.23
2018-05-12T00:51:17.892Z,31.90
2018-05-12T00:53:45.414Z,33.40
2018-05-12T00:56:12.973Z,41.33
2018-05-12T00:58:40.476Z,32.30
2018-05-12T01:01:08.009Z,34.67
2018-05-12T01:03:35.565Z,31.43
2018-05-12T01:06:03.096Z,35.87
2018-05-12T01:08:30.597Z,42.17
2018-05-12T01:10:58.327Z,33.97
2018-05-12T01:13:25.930Z,40.03
2018-05-12T01:15:53.465Z,37.13
2018-05-12T01:18:21.005Z,39.50
2018-05-12T01:20:48.604Z,33.97
2018-05-12T01:23:16.138Z,35.73
2018-05-12T01:25:43.683Z,34.57
2018-05-12T01:28:11.241Z,40.60
2018-05-12T01:30:39.127Z,33.53
2018-05-12T01:33:06.669Z,45.03
2018-05-12T01:35:34.617Z,39.90
2018-05-12T01:38:02.174Z,34.07
2018-05-12T01:40:29.693Z,33.77
2018-05-12T01:42:57.225Z,38.07
2018-05-12T01:45:24.858Z,39.53
2018-05-12T01:47:52.411Z,53.73
2018-05-12T01:50:20.176Z,41.30
2018-05-12T01:52:47.747Z,37.70
2018-05-12T01:55:16.015Z,39.73
2018-05-12T01:57:43.583Z,34.50
2018-05-12T02:00:11.273Z,36.33
2018-05-12T02:02:39.105Z,34.70
2018-05-12T02:05:06.641Z,35.70
2018-05-12T02:07:34.211Z,35.00
2018-05-12T02:10:01.986Z,37.70
2018-05-12T02:12:29.534Z,33.77
2018-05-12T02:14:57.111Z,43.17
2018-05-12T02:17:24.681Z,38.43
2018-05-12T02:19:52.226Z,37.30
2018-05-12T02:22:19.753Z,35.20
2018-05-12T02:24:47.292Z,37.30
2018-05-12T02:27:15.112Z,37.87
2018-05-12T02:29:42.981Z,36.90
2018-05-12T02:32:10.569Z,32.90
2018-05-12T02:34:38.126Z,40.60
2018-05-12T02:37:05.664Z,41.60
2018-05-12T02:39:33.429Z,39.10
2018-05-12T02:42:00.978Z,38.73
2018-05-12T02:44:28.758Z,39.87
2018-05-12T02:46:56.269Z,33.83
2018-05-12T02:49:23.830Z,38.70
2018-05-12T02:51:51.355Z,40.07
2018-05-12T02:54:19.026Z,34.93
2018-05-12T02:56:46.683Z,36.80
2018-05-12T02:59:14.533Z,37.23
2018-05-12T03:01:42.063Z,37.00
2018-05-12T03:04:09.625Z,42.20
2018-05-12T03:06:37.538Z,35.10
2018-05-12T03:09:05.077Z,34.20
2018-05-12T03:11:32.626Z,36.87
2018-05-12T03:14:00.410Z,39.03
2018-05-12T03:16:27.941Z,37.73
2018-05-12T03:18:55.466Z,38.03
2018-05-12T03:21:22.999Z,47.23
2018-05-12T03:23:50.547Z,35.30
2018-05-12T03:26:18.100Z,41.07
2018-05-12T03:28:45.606Z,41.33
2018-05-12T03:31:13.434Z,39.10
2018-05-12T03:33:41.036Z,37.30
2018-05-12T03:36:08.592Z,41.50
2018-05-12T03:38:36.131Z,42.50
2018-05-12T03:41:03.681Z,35.53
2018-05-12T03:43:31.203Z,39.60
2018-05-12T03:45:58.787Z,37.13
2018-05-12T03:48:26.565Z,47.20
2018-05-12T03:50:54.092Z,37.10
2018-05-12T03:53:21.648Z,43.10
2018-05-12T03:55:49.663Z,37.20
2018-05-12T03:58:17.544Z,40.83
2018-05-12T04:00:45.111Z,35.03
2018-05-12T04:03:14.777Z,37.90
2018-05-12T04:05:53.985Z,40.43
2018-05-12T04:08:34.441Z,34.93
2018-05-12T04:11:13.798Z,38.70
2018-05-12T04:13:41.382Z,39.30
2018-05-12T04:16:08.898Z,39.03
2018-05-12T04:18:36.428Z,39.70
2018-05-12T04:21:05.193Z,50.53
2018-05-12T04:23:32.619Z,41.77
2018-05-12T04:26:00.223Z,41.30
2018-05-12T04:28:28.105Z,38.40
2018-05-12T04:30:55.967Z,42.20
2018-05-12T04:33:23.633Z,42.97
2018-05-12T04:35:51.172Z,45.13
2018-05-12T04:38:18.691Z,44.23
2018-05-12T04:40:46.207Z,48.90
2018-05-12T04:43:14.131Z,46.53
2018-05-12T04:45:41.671Z,43.73
2018-05-12T04:48:09.186Z,48.77
2018-05-12T04:50:36.856Z,47.77
2018-05-12T04:53:04.419Z,46.77
2018-05-12T04:55:32.279Z,50.60
2018-05-12T04:57:59.901Z,55.93
2018-05-12T05:00:27.437Z,51.97
2018-05-12T05:02:54.946Z,47.47
2018-05-12T05:05:22.506Z,51.33
2018-05-12T05:07:50.426Z,50.27
2018-05-12T05:10:18.263Z,52.80
2018-05-12T05:12:45.817Z,54.93
2018-05-12T05:15:13.419Z,54.83
2018-05-12T05:17:40.943Z,60.73
2018-05-12T05:20:08.498Z,55.07
2018-05-12T05:22:36.110Z,60.57
2018-05-12T05:25:03.621Z,58.70
2018-05-12T05:27:31.161Z,56.60
2018-05-12T05:29:58.662Z,74.17
2018-05-12T05:32:26.162Z,51.90
2018-05-12T05:34:53.708Z,60.17
2018-05-12T05:37:21.210Z,58.20
2018-05-12T05:39:48.744Z,56.20
2018-05-12T05:42:16.283Z,60.03
2018-05-12T05:44:43.837Z,57.13
2018-05-12T05:47:11.396Z,63.67
2018-05-12T05:49:39.239Z,62.03
2018-05-12T05:52:06.742Z,57.00
2018-05-12T05:54:34.238Z,61.17
2018-05-12T05:57:01.824Z,61.43
2018-05-12T05:59:29.348Z,56.10
2018-05-12T06:01:56.865Z,64.23
2018-05-12T06:04:24.401Z,57.30
2018-05-12T06:06:52.000Z,67.80
2018-05-12T06:09:19.476Z,63.37
2018-05-12T06:11:47.010Z,57.77
2018-05-12T06:14:14.595Z,57.17
2018-05-12T06:16:42.193Z,68.80
2018-05-12T06:19:09.732Z,61.47
2018-05-12T06:21:37.253Z,61.93
2018-05-12T06:24:04.771Z,62.47
2018-05-12T06:26:32.302Z,73.43
2018-05-12T06:28:59.827Z,70.63
2018-05-12T06:31:27.338Z,69.30
2018-05-12T06:33:54.911Z,69.30
2018-05-12T06:36:22.491Z,66.73
2018-05-12T06:38:50.053Z,62.03
2018-05-12T06:41:17.722Z,66.30
2018-05-12T06:43:45.255Z,71.43
2018-05-12T06:46:12.785Z,59.30
2018-05-12T06:48:40.584Z,69.13
2018-05-12T06:51:08.113Z,68.80
2018-05-12T06:53:35.645Z,72.47
2018-05-12T06:56:03.187Z,66.07
2018-05-12T06:58:30.919Z,70.93
2018-05-12T07:00:58.427Z,70.27
2018-05-12T07:03:26.020Z,66.37
2018-05-12T07:05:53.571Z,70.13
2018-05-12T07:08:21.117Z,67.47
2018-05-12T07:10:50.375Z,79.97
2018-05-12T07:13:17.977Z,66.43
2018-05-12T07:15:45.504Z,65.47
2018-05-12T07:18:13.115Z,73.57
2018-05-12T07:20:40.631Z,64.73
2018-05-12T07:23:08.395Z,87.07
2018-05-12T07:25:35.965Z,69.07
2018-05-12T07:28:03.482Z,71.37
2018-05-12T07:30:31.011Z,66.50
2018-05-12T07:32:58.546Z,68.47
2018-05-12T07:35:26.171Z,69.27
2018-05-12T07:37:53.747Z,76.93
2018-05-12T07:40:21.283Z,67.07
2018-05-12T07:42:48.793Z,68.93
2018-05-12T07:45:16.408Z,62.97
2018-05-12T07:47:43.964Z,72.87
2018-05-12T07:50:11.578Z,67.43
2018-05-12T07:52:39.199Z,61.90
2018-05-12T07:55:07.084Z,59.80
2018-05-12T07:57:34.614Z,64.67
2018-05-12T08:00:02.183Z,66.27
2018-05-12T08:02:29.883Z,64.27
2018-05-12T08:04:57.508Z,57.10
2018-05-12T08:07:25.091Z,66.83
2018-05-12T08:09:52.651Z,65.67
2018-05-12T08:12:20.172Z,64.80
2018-05-12T08:14:47.836Z,71.40
2018-05-12T08:17:15.415Z,64.73
2018-05-12T08:19:42.947Z,73.90
2018-05-12T08:22:10.474Z,68.37
2018-05-12T08:24:38.037Z,57.60
2018-05-12T08:27:05.564Z,60.10
2018-05-12T08:29:33.088Z,57.43
2018-05-12T08:32:00.650Z,56.93
2018-05-12T08:34:28.246Z,57.60
2018-05-12T08:36:55.769Z,64.80
2018-05-12T08:39:23.303Z,55.10
2018-05-12T08:41:50.849Z,58.47
2018-05-12T08:44:18.367Z,54.13
2018-05-12T08:46:46.262Z,65.20
2018-05-12T08:49:13.844Z,67.23
2018-05-12T08:51:41.410Z,57.90
2018-05-12T08:54:08.958Z,190.97
2018-05-12T08:56:36.465Z,107.30
2018-05-12T08:59:04.038Z,138.67
2018-05-12T09:01:31.953Z,139.27
2018-05-12T09:03:59.480Z,353.27
2018-05-12T09:06:27.127Z,351.57
2018-05-12T09:08:54.807Z,257.30
2018-05-12T09:11:22.346Z,167.73
2018-05-12T09:13:49.854Z,70.50
2018-05-12T09:16:17.412Z,235.47
2018-05-12T09:18:44.926Z,86.87
2018-05-12T09:21:12.747Z,235.27
2018-05-12T09:23:40.355Z,184.10
2018-05-12T09:26:07.883Z,50.47
2018-05-12T09:28:35.452Z,146.83
2018-05-12T09:31:03.382Z,64.30
2018-05-12T09:33:30.902Z,221.20
2018-05-12T09:35:58.418Z,137.87
2018-05-12T09:38:25.975Z,55.17
2018-05-12T09:40:53.625Z,118.30
2018-05-12T09:43:21.139Z,56.83
2018-05-12T09:45:48.699Z,147.63
2018-05-12T09:48:16.310Z,144.60
2018-05-12T09:50:44.076Z,50.90
2018-05-12T09:53:11.631Z,141.30
2018-05-12T09:55:39.187Z,51.37
2018-05-12T09:58:06.708Z,92.20
2018-05-12T10:00:34.268Z,75.30
2018-05-12T10:03:01.797Z,76.57
2018-05-12T10:05:29.332Z,45.97
2018-05-12T10:07:56.885Z,37.87
2018-05-12T10:10:24.397Z,69.10
2018-05-12T10:12:52.012Z,78.37
2018-05-12T10:15:19.488Z,63.67
2018-05-12T10:17:47.363Z,71.13
2018-05-12T10:20:15.324Z,41.47
2018-05-12T10:22:43.115Z,35.43
2018-05-12T10:25:10.626Z,53.13
2018-05-12T10:27:38.241Z,36.67
2018-05-12T10:30:06.543Z,38.73
2018-05-12T10:32:34.104Z,41.40
2018-05-12T10:35:01.619Z,41.80
2018-05-12T10:37:29.227Z,36.60
2018-05-12T10:39:56.693Z,51.07
2018-05-12T10:42:24.213Z,46.57
2018-05-12T10:44:51.950Z,35.20
2018-05-12T10:47:19.474Z,43.73
2018-05-12T10:49:47.068Z,41.57
2018-05-12T10:52:14.605Z,34.67
2018-05-12T10:54:42.154Z,39.83
2018-05-12T10:57:09.675Z,38.80
2018-05-12T10:59:37.274Z,40.17
2018-05-12T11:02:04.798Z,31.50
2018-05-12T11:04:32.313Z,37.60
2018-05-12T11:06:59.890Z,37.73
2018-05-12T11:09:27.428Z,35.97
2018-05-12T11:11:54.979Z,29.13
2018-05-12T11:14:22.514Z,28.13
2018-05-12T11:16:50.055Z,32.47
2018-05-12T11:19:17.584Z,27.80
2018-05-12T11:21:45.165Z,31.00
2018-05-12T11:24:12.676Z,33.37
2018-05-12T11:26:40.353Z,32.80
2018-05-12T11:29:07.924Z,28.33
2018-05-12T11:31:37.364Z,32.63
2018-05-12T11:34:04.995Z,30.33
2018-05-12T11:36:32.618Z,31.67
2018-05-12T11:39:00.218Z,29.13
2018-05-12T11:41:27.724Z,28.70
2018-05-12T11:43:55.547Z,30.17
2018-05-12T11:46:23.049Z,29.87
2018-05-12T11:48:50.553Z,31.23
2018-05-12T11:51:18.191Z,29.03
2018-05-12T11:53:45.716Z,32.40
2018-05-12T11:56:13.287Z,35.03
2018-05-12T11:58:40.848Z,26.93
2018-05-12T12:01:08.392Z,27.00
2018-05-12T12:03:35.933Z,28.70
2018-05-12T12:06:03.521Z,23.60
2018-05-12T12:08:31.277Z,26.53
2018-05-12T12:10:58.802Z,27.07
2018-05-12T12:13:26.379Z,27.70
2018-05-12T12:15:54.245Z,29.90
2018-05-12T12:18:22.015Z,24.93
2018-05-12T12:20:49.554Z,30.80
2018-05-12T12:23:17.110Z,25.30
2018-05-12T12:25:44.668Z,24.63
2018-05-12T12:28:12.569Z,29.50
2018-05-12T12:30:40.099Z,23.37
2018-05-12T12:33:07.626Z,27.70
2018-05-12T12:35:35.148Z,23.47
2018-05-12T12:38:02.678Z,24.50
2018-05-12T12:40:30.476Z,24.47
2018-05-12T12:42:58.105Z,26.00
2018-05-12T12:45:25.611Z,22.80
2018-05-12T12:47:53.372Z,22.57
2018-05-12T12:50:20.916Z,21.00
2018-05-12T12:52:48.441Z,19.50
2018-05-12T12:55:16.073Z,27.50
2018-05-12T12:57:43.916Z,22.63
2018-05-12T13:00:11.452Z,19.03
2018-05-12T13:02:38.962Z,18.80
2018-05-12T13:05:06.591Z,19.63
2018-05-12T13:07:34.165Z,22.60
2018-05-12T13:10:01.688Z,28.07
2018-05-12T13:12:29.238Z,16.03
2018-05-12T13:14:56.757Z,17.20
2018-05-12T13:17:24.344Z,15.73
2018-05-12T13:19:51.879Z,16.02
2018-05-12T13:22:19.479Z,16.02
2018-05-12T13:24:47.025Z,16.02
2018-05-12T13:27:14.579Z,16.48
2018-05-12T13:29:42.412Z,14.87
2018-05-12T13:32:09.940Z,14.80
2018-05-12T13:34:37.479Z,14.90
2018-05-12T13:37:05.029Z,14.70
2018-05-12T13:39:32.573Z,15.52
2018-05-12T13:42:00.121Z,15.68
2018-05-12T13:44:27.649Z,16.77
2018-05-12T13:46:55.223Z,16.62
2018-05-12T13:49:22.754Z,14.30
2018-05-12T13:51:50.285Z,15.20
2018-05-12T13:54:17.822Z,14.95
2018-05-12T13:56:45.484Z,15.65
2018-05-12T13:59:12.935Z,15.00
2018-05-12T14:01:40.455Z,14.23
2018-05-12T14:04:08.145Z,16.37
2018-05-12T14:06:35.670Z,14.63
2018-05-12T14:09:03.203Z,19.23
2018-05-12T14:11:30.742Z,14.63
2018-05-12T14:13:58.298Z,15.80
2018-05-12T14:16:26.807Z,15.85
2018-05-12T14:18:54.465Z,16.10
2018-05-12T14:21:22.407Z,14.27
2018-05-12T14:23:49.965Z,14.50
2018-05-12T14:26:17.531Z,18.63
2018-05-12T14:28:45.161Z,13.55
2018-05-12T14:31:12.694Z,15.98
2018-05-12T14:33:40.296Z,15.70
2018-05-12T14:36:07.868Z,17.97
2018-05-12T14:38:36.177Z,16.67
2018-05-12T14:41:05.498Z,17.60
2018-05-12T14:43:33.037Z,17.80
2018-05-12T14:46:01.652Z,21.10
2018-05-12T14:48:29.999Z,23.87
2018-05-12T14:50:57.667Z,17.67
2018-05-12T14:53:25.400Z,22.27
2018-05-12T14:55:55.203Z,18.40
2018-05-12T14:58:22.727Z,17.47
2018-05-12T15:00:50.301Z,18.00
2018-05-12T15:03:18.757Z,20.13
2018-05-12T15:05:46.558Z,18.23
2018-05-12T15:08:15.114Z,20.60
2018-05-12T15:10:45.048Z,18.50
2018-05-12T15:13:12.976Z,20.93
2018-05-12T15:15:41.438Z,23.93
2018-05-12T15:18:09.117Z,20.00
2018-05-12T15:20:37.983Z,18.40
2018-05-12T15:23:05.596Z,21.03
2018-05-12T15:25:34.223Z,18.63
2018-05-12T15:28:02.266Z,18.37
2018-05-12T15:30:34.437Z,19.33
2018-05-12T15:33:02.456Z,19.20
2018-05-12T15:35:30.106Z,22.50
2018-05-12T15:37:59.692Z,23.50
2018-05-12T15:40:30.174Z,19.67
2018-05-12T15:42:57.850Z,17.40
2018-05-12T15:45:25.368Z,19.33
2018-05-12T15:47:52.910Z,18.27
2018-05-12T15:50:20.486Z,22.17
2018-05-12T15:52:48.496Z,19.30
2018-05-12T15:55:16.415Z,18.93
2018-05-12T15:57:43.973Z,19.40
2018-05-12T16:00:11.483Z,23.57
2018-05-12T16:02:39.014Z,19.90
2018-05-12T16:05:06.539Z,17.87
2018-05-12T16:07:34.145Z,18.00
2018-05-12T16:10:01.727Z,18.60
2018-05-12T16:12:29.276Z,24.50
2018-05-12T16:14:56.833Z,24.43
2018-05-12T16:17:24.394Z,19.93
2018-05-12T16:19:51.929Z,38.77
2018-05-12T16:22:19.560Z,17.37
2018-05-12T16:24:47.094Z,23.60
2018-05-12T16:27:14.701Z,21.50
2018-05-12T16:29:42.387Z,31.93
2018-05-12T16:32:10.045Z,22.53
2018-05-12T16:34:37.733Z,24.83
2018-05-12T16:37:05.257Z,19.43
2018-05-12T16:39:32.826Z,20.33
2018-05-12T16:42:00.731Z,22.53
2018-05-12T16:44:29.266Z,22.07
2018-05-12T16:46:56.809Z,21.97
2018-05-12T16:49:24.341Z,23.67
2018-05-12T16:51:51.870Z,17.97
2018-05-12T16:54:19.410Z,28.10
2018-05-12T16:56:47.077Z,29.63
2018-05-12T16:59:14.650Z,21.73
2018-05-12T17:01:42.189Z,25.93
2018-05-12T17:04:09.822Z,21.83
2018-05-12T17:06:37.357Z,21.40
2018-05-12T17:09:05.831Z,27.07
2018-05-12T17:11:33.355Z,20.13
2018-05-12T17:14:00.912Z,21.03
2018-05-12T17:16:28.469Z,22.50
2018-05-12T17:18:56.368Z,21.70
2018-05-12T17:21:23.921Z,22.40
2018-05-12T17:23:51.538Z,23.47
2018-05-12T17:26:19.088Z,31.93
2018-05-12T17:28:46.623Z,24.20
2018-05-12T17:31:14.171Z,21.63
2018-05-12T17:33:41.683Z,22.60
2018-05-12T17:36:09.178Z,21.27
2018-05-12T17:38:36.788Z,21.47
2018-05-12T17:41:04.299Z,22.50
2018-05-12T17:43:31.805Z,29.30
2018-05-12T17:45:59.741Z,24.40
2018-05-12T17:48:27.246Z,21.87
2018-05-12T17:50:54.758Z,28.10
2018-05-12T17:53:22.306Z,27.27
2018-05-12T17:55:49.822Z,21.47
2018-05-12T17:58:17.368Z,25.60
2018-05-12T18:00:44.946Z,20.57
2018-05-12T18:03:12.485Z,22.73
2018-05-12T18:05:40.000Z,25.63
2018-05-12T18:08:07.560Z,29.40
2018-05-12T18:10:35.456Z,22.70
2018-05-12T18:13:02.961Z,22.27
2018-05-12T18:15:30.500Z,21.87
2018-05-12T18:17:58.006Z,24.80
2018-05-12T18:20:25.564Z,27.20
2018-05-12T18:22:53.121Z,24.30
2018-05-12T18:25:20.627Z,28.50
2018-05-12T18:27:48.191Z,24.23
2018-05-12T18:30:15.866Z,27.50
2018-05-12T18:32:43.386Z,22.20
2018-05-12T18:35:11.279Z,21.67
2018-05-12T18:37:38.837Z,32.33
2018-05-12T18:40:06.606Z,21.70
2018-05-12T18:42:34.125Z,23.47
2018-05-12T18:45:01.728Z,26.90
2018-05-12T18:47:29.305Z,23.13
2018-05-12T18:49:56.819Z,22.57
2018-05-12T18:52:24.677Z,22.30
2018-05-12T18:54:52.267Z,24.00
2018-05-12T18:57:19.848Z,26.43
2018-05-12T18:59:47.446Z,21.40
2018-05-12T19:02:15.037Z,23.73
2018-05-12T19:04:42.563Z,31.23
2018-05-12T19:07:10.161Z,23.90
2018-05-12T19:09:37.696Z,23.97
2018-05-12T19:12:05.220Z,24.53
2018-05-12T19:14:32.747Z,26.43
2018-05-12T19:17:00.346Z,24.53
2018-05-12T19:19:27.894Z,23.93
2018-05-12T19:21:55.667Z,26.63
2018-05-12T19:24:23.362Z,30.83
2018-05-12T19:26:50.952Z,30.53
2018-05-12T19:29:18.516Z,25.10
2018-05-12T19:31:46.039Z,30.43
2018-05-12T19:34:13.969Z,24.87
2018-05-12T19:36:41.529Z,23.17
2018-05-12T19:39:09.043Z,27.80
2018-05-12T19:41:36.957Z,29.60
2018-05-12T19:44:04.904Z,25.77
2018-05-12T19:46:32.452Z,26.30
2018-05-12T19:48:59.978Z,21.57
2018-05-12T19:51:27.538Z,23.37
2018-05-12T19:53:55.069Z,26.13
2018-05-12T19:56:22.700Z,26.33
2018-05-12T19:58:50.293Z,25.93
2018-05-12T20:01:18.155Z,26.33
2018-05-12T20:03:45.687Z,26.03
2018-05-12T20:06:13.280Z,26.10
2018-05-12T20:08:41.103Z,34.93
2018-05-12T20:11:08.644Z,24.13
2018-05-12T20:13:36.224Z,24.80
2018-05-12T20:16:03.841Z,27.77
2018-05-12T20:18:31.290Z,24.93
2018-05-12T20:20:59.046Z,28.40
2018-05-12T20:23:26.652Z,26.70
2018-05-12T20:25:54.187Z,24.60
2018-05-12T20:28:21.721Z,26.43
2018-05-12T20:30:49.431Z,30.90
2018-05-12T20:33:16.945Z,24.87
2018-05-12T20:35:44.508Z,27.10
2018-05-12T20:38:12.181Z,29.23
2018-05-12T20:40:39.754Z,28.90
2018-05-12T20:43:07.315Z,25.40
2018-05-12T20:45:34.869Z,31.03
2018-05-12T20:48:02.377Z,31.10
2018-05-12T20:50:29.932Z,30.07
2018-05-12T20:52:57.563Z,27.77
2018-05-12T20:55:25.218Z,26.77
2018-05-12T20:57:53.331Z,29.03
2018-05-12T21:00:20.872Z,29.90
2018-05-12T21:02:48.485Z,28.97
2018-05-12T21:05:16.069Z,29.70
2018-05-12T21:07:43.598Z,28.37
2018-05-12T21:10:11.142Z,32.67
2018-05-12T21:12:38.696Z,25.93
2018-05-12T21:15:06.284Z,26.67
2018-05-12T21:17:33.812Z,30.07
2018-05-12T21:20:01.372Z,31.60
2018-05-12T21:22:28.901Z,30.03
2018-05-12T21:24:56.764Z,26.13
2018-05-12T21:27:24.450Z,25.87
2018-05-12T21:29:51.999Z,24.83
2018-05-12T21:32:19.523Z,24.40
2018-05-12T21:34:47.796Z,27.17
2018-05-12T21:37:15.805Z,24.93
2018-05-12T21:39:43.314Z,25.57
2018-05-12T21:42:11.117Z,30.10
2018-05-12T21:44:38.635Z,28.70
2018-05-12T21:47:06.236Z,29.20
2018-05-12T21:49:33.940Z,27.70
2018-05-12T21:52:01.437Z,26.43
2018-05-12T21:54:28.980Z,31.20
2018-05-12T21:56:56.531Z,25.30
2018-05-12T21:59:24.103Z,29.97
2018-05-12T22:01:51.902Z,31.10
2018-05-12T22:04:19.446Z,29.93
2018-05-12T22:06:46.948Z,29.03
2018-05-12T22:09:14.508Z,25.87
2018-05-12T22:11:43.103Z,32.10
2018-05-12T22:14:10.926Z,31.97
2018-05-12T22:16:38.520Z,31.10
2018-05-12T22:19:06.058Z,28.30
2018-05-12T22:21:33.639Z,27.27
2018-05-12T22:24:01.502Z,25.10
2018-05-12T22:26:29.347Z,38.57
2018-05-12T22:28:57.111Z,28.23
2018-05-12T22:31:24.677Z,24.73
2018-05-12T22:33:52.241Z,28.13
2018-05-12T22:36:19.753Z,25.53
2018-05-12T22:38:47.277Z,27.43
2018-05-12T22:41:15.120Z,32.43
2018-05-12T22:43:42.630Z,26.43
2018-05-12T22:46:10.137Z,35.20
2018-05-12T22:48:37.689Z,25.37
2018-05-12T22:51:05.238Z,32.10
2018-05-12T22:53:32.932Z,29.33
2018-05-12T22:56:00.498Z,26.63
2018-05-12T22:58:28.006Z,25.30
2018-05-12T23:00:55.505Z,23.30
2018-05-12T23:03:23.049Z,41.40
2018-05-12T23:05:50.563Z,25.50
2018-05-12T23:08:18.073Z,30.17
2018-05-12T23:10:45.659Z,25.23
2018-05-12T23:13:13.217Z,26.93
2018-05-12T23:15:40.731Z,25.93
2018-05-12T23:18:08.258Z,33.60
2018-05-12T23:20:35.816Z,30.77
2018-05-12T23:23:03.322Z,26.10
2018-05-12T23:25:30.865Z,25.73
2018-05-12T23:27:58.370Z,25.67
2018-05-12T23:30:25.943Z,30.50
2018-05-12T23:32:53.795Z,31.97
2018-05-12T23:35:21.555Z,30.23
2018-05-12T23:37:49.096Z,40.70
2018-05-12T23:40:16.874Z,32.07
2018-05-12T23:42:44.391Z,28.67
2018-05-12T23:45:11.931Z,26.63
2018-05-12T23:47:39.504Z,25.67
2018-05-12T23:50:07.014Z,28.20
2018-05-12T23:52:34.565Z,26.23
2018-05-12T23:55:02.139Z,25.43
2018-05-12T23:57:29.663Z,25.30
2018-05-12T23:59:57.185Z,31.33
